sensor_id;sensor_type;location;lat;lon;timestamp;P1;durP1;ratioP1;P2;durP2;ratioP2
50631;SDS011;49583;45.590;-122.498;2023-01-24T00:00:51;7.40;;;3.10;;
50631;SDS011;49583;45.590;-122.498;2023-01-24T00:03:04;6.50;;;3.40;;
50631;SDS011;49583;45.590;-122.498;2023-01-24T00:05:20;10.40;;;3.50;;
50631;SDS011;49583;45.590;-122.498;2023-01-24T00:07:33;8.40;;;3.40;;
50631;SDS011;49583;45.590;-122.498;2023-01-24T00:09:46;10.00;;;3.40;;
50631;SDS011;49583;45.590;-122.498;2023-01-24T00:11:59;6.80;;;3.50;;
50631;SDS011;49583;45.590;-122.498;2023-01-24T00:14:12;9.70;;;3.70;;
50631;SDS011;49583;45.590;-122.498;2023-01-24T00:16:25;11.80;;;4.10;;
50631;SDS011;49583;45.590;-122.498;2023-01-24T00:18:38;7.40;;;3.50;;
50631;SDS011;49583;45.590;-122.498;2023-01-24T00:20:51;12.50;;;3.90;;
50631;SDS011;49583;45.590;-122.498;2023-01-24T00:23:09;7.80;;;3.00;;
50631;SDS011;49583;45.590;-122.498;2023-01-24T00:25:24;10.40;;;3.50;;
50631;SDS011;49583;45.590;-122.498;2023-01-24T00:27:37;7.70;;;3.00;;
50631;SDS011;49583;45.590;-122.498;2023-01-24T00:29:50;6.30;;;3.20;;
50631;SDS011;49583;45.590;-122.498;2023-01-24T00:32:03;8.90;;;3.20;;
50631;SDS011;49583;45.590;-122.498;2023-01-24T00:34:18;10.30;;;3.30;;
50631;SDS011;49583;45.590;-122.498;2023-01-24T00:36:31;10.90;;;4.00;;
50631;SDS011;49583;45.590;-122.498;2023-01-24T00:38:44;8.30;;;3.70;;
50631;SDS011;49583;45.590;-122.498;2023-01-24T00:40:57;11.10;;;3.50;;
50631;SDS011;49583;45.590;-122.498;2023-01-24T00:43:11;12.40;;;3.50;;
50631;SDS011;49583;45.590;-122.498;2023-01-24T00:45:27;6.20;;;3.50;;
50631;SDS011;49583;45.590;-122.498;2023-01-24T00:47:42;6.40;;;3.10;;
50631;SDS011;49583;45.590;-122.498;2023-01-24T00:49:55;11.40;;;3.80;;
50631;SDS011;49583;45.590;-122.498;2023-01-24T00:52:09;8.60;;;3.20;;
50631;SDS011;49583;45.590;-122.498;2023-01-24T00:54:22;8.60;;;2.90;;
50631;SDS011;49583;45.590;-122.498;2023-01-24T00:56:35;8.50;;;3.60;;
50631;SDS011;49583;45.590;-122.498;2023-01-24T00:58:49;11.00;;;4.00;;
50631;SDS011;49583;45.590;-122.498;2023-01-24T01:01:02;12.50;;;3.90;;
50631;SDS011;49583;45.590;-122.498;2023-01-24T01:03:16;8.90;;;3.90;;
50631;SDS011;49583;45.590;-122.498;2023-01-24T01:05:29;5.90;;;3.20;;
50631;SDS011;49583;45.590;-122.498;2023-01-24T01:07:42;9.40;;;3.90;;
50631;SDS011;49583;45.590;-122.498;2023-01-24T01:09:56;6.70;;;3.30;;
50631;SDS011;49583;45.590;-122.498;2023-01-24T01:12:09;13.00;;;3.60;;
50631;SDS011;49583;45.590;-122.498;2023-01-24T01:14:22;10.90;;;3.40;;
50631;SDS011;49583;45.590;-122.498;2023-01-24T01:16:35;13.40;;;4.10;;
50631;SDS011;49583;45.590;-122.498;2023-01-24T01:18:48;11.40;;;4.50;;
50631;SDS011;49583;45.590;-122.498;2023-01-24T01:21:04;7.60;;;3.40;;
50631;SDS011;49583;45.590;-122.498;2023-01-24T01:23:20;7.90;;;3.30;;
50631;SDS011;49583;45.590;-122.498;2023-01-24T01:25:37;12.80;;;3.70;;
50631;SDS011;49583;45.590;-122.498;2023-01-24T01:27:51;11.10;;;3.90;;
50631;SDS011;49583;45.590;-122.498;2023-01-24T01:30:04;9.30;;;3.20;;
50631;SDS011;49583;45.590;-122.498;2023-01-24T01:32:20;8.00;;;4.20;;
50631;SDS011;49583;45.590;-122.498;2023-01-24T01:34:33;9.60;;;3.80;;
50631;SDS011;49583;45.590;-122.498;2023-01-24T01:36:46;14.20;;;4.20;;
50631;SDS011;49583;45.590;-122.498;2023-01-24T01:38:59;8.10;;;4.10;;
50631;SDS011;49583;45.590;-122.498;2023-01-24T01:41:12;9.70;;;4.30;;
50631;SDS011;49583;45.590;-122.498;2023-01-24T01:43:26;11.40;;;3.90;;
50631;SDS011;49583;45.590;-122.498;2023-01-24T01:45:41;13.00;;;4.10;;
50631;SDS011;49583;45.590;-122.498;2023-01-24T01:47:56;9.90;;;4.00;;
50631;SDS011;49583;45.590;-122.498;2023-01-24T01:50:15;16.40;;;4.20;;
50631;SDS011;49583;45.590;-122.498;2023-01-24T01:52:32;8.90;;;4.10;;
50631;SDS011;49583;45.590;-122.498;2023-01-24T01:54:48;10.60;;;3.40;;
50631;SDS011;49583;45.590;-122.498;2023-01-24T01:57:08;13.70;;;4.50;;
50631;SDS011;49583;45.590;-122.498;2023-01-24T01:59:24;10.10;;;3.90;;
50631;SDS011;49583;45.590;-122.498;2023-01-24T02:01:42;6.70;;;2.90;;
50631;SDS011;49583;45.590;-122.498;2023-01-24T02:03:59;7.30;;;3.00;;
50631;SDS011;49583;45.590;-122.498;2023-01-24T02:06:18;10.00;;;3.90;;
50631;SDS011;49583;45.590;-122.498;2023-01-24T02:08:52;14.40;;;4.30;;
50631;SDS011;49583;45.590;-122.498;2023-01-24T02:11:07;12.80;;;3.70;;
50631;SDS011;49583;45.590;-122.498;2023-01-24T02:13:37;10.10;;;3.10;;
50631;SDS011;49583;45.590;-122.498;2023-01-24T02:15:52;16.60;;;4.30;;
50631;SDS011;49583;45.590;-122.498;2023-01-24T02:18:12;7.60;;;4.40;;
50631;SDS011;49583;45.590;-122.498;2023-01-24T02:20:30;13.50;;;4.30;;
50631;SDS011;49583;45.590;-122.498;2023-01-24T02:22:50;10.40;;;4.30;;
50631;SDS011;49583;45.590;-122.498;2023-01-24T02:25:12;7.40;;;3.50;;
50631;SDS011;49583;45.590;-122.498;2023-01-24T02:27:29;6.00;;;3.50;;
50631;SDS011;49583;45.590;-122.498;2023-01-24T02:29:43;11.10;;;3.40;;
50631;SDS011;49583;45.590;-122.498;2023-01-24T02:31:56;7.00;;;3.40;;
50631;SDS011;49583;45.590;-122.498;2023-01-24T02:34:10;6.50;;;3.30;;
50631;SDS011;49583;45.590;-122.498;2023-01-24T02:36:24;7.70;;;3.00;;
50631;SDS011;49583;45.590;-122.498;2023-01-24T02:38:40;4.10;;;2.30;;
50631;SDS011;49583;45.590;-122.498;2023-01-24T02:40:56;3.60;;;1.90;;
50631;SDS011;49583;45.590;-122.498;2023-01-24T02:43:14;7.40;;;2.20;;
50631;SDS011;49583;45.590;-122.498;2023-01-24T02:45:30;4.90;;;2.40;;
50631;SDS011;49583;45.590;-122.498;2023-01-24T02:47:47;5.50;;;2.30;;
50631;SDS011;49583;45.590;-122.498;2023-01-24T02:50:01;4.00;;;2.10;;
50631;SDS011;49583;45.590;-122.498;2023-01-24T02:52:16;3.80;;;2.50;;
50631;SDS011;49583;45.590;-122.498;2023-01-24T02:54:45;8.40;;;2.20;;
50631;SDS011;49583;45.590;-122.498;2023-01-24T02:56:58;5.90;;;2.70;;
50631;SDS011;49583;45.590;-122.498;2023-01-24T02:59:28;5.70;;;2.10;;
50631;SDS011;49583;45.590;-122.498;2023-01-24T03:01:41;4.40;;;2.50;;
50631;SDS011;49583;45.590;-122.498;2023-01-24T03:03:54;3.20;;;2.70;;
50631;SDS011;49583;45.590;-122.498;2023-01-24T03:06:08;6.70;;;2.70;;
50631;SDS011;49583;45.590;-122.498;2023-01-24T03:08:22;7.70;;;3.40;;
50631;SDS011;49583;45.590;-122.498;2023-01-24T03:10:37;10.00;;;3.50;;
50631;SDS011;49583;45.590;-122.498;2023-01-24T03:12:51;8.20;;;3.30;;
50631;SDS011;49583;45.590;-122.498;2023-01-24T03:15:21;7.80;;;2.80;;
50631;SDS011;49583;45.590;-122.498;2023-01-24T03:17:51;8.00;;;2.80;;
50631;SDS011;49583;45.590;-122.498;2023-01-24T03:20:23;4.80;;;2.40;;
50631;SDS011;49583;45.590;-122.498;2023-01-24T03:22:53;5.50;;;2.00;;
50631;SDS011;49583;45.590;-122.498;2023-01-24T03:25:24;7.20;;;2.40;;
50631;SDS011;49583;45.590;-122.498;2023-01-24T03:27:54;9.40;;;3.00;;
50631;SDS011;49583;45.590;-122.498;2023-01-24T03:30:29;7.50;;;2.70;;
50631;SDS011;49583;45.590;-122.498;2023-01-24T03:33:02;6.20;;;2.60;;
50631;SDS011;49583;45.590;-122.498;2023-01-24T03:35:33;3.90;;;2.10;;
50631;SDS011;49583;45.590;-122.498;2023-01-24T03:37:46;4.80;;;2.70;;
50631;SDS011;49583;45.590;-122.498;2023-01-24T03:40:15;6.80;;;3.20;;
50631;SDS011;49583;45.590;-122.498;2023-01-24T03:42:29;6.00;;;2.70;;
50631;SDS011;49583;45.590;-122.498;2023-01-24T03:44:44;7.20;;;2.50;;
50631;SDS011;49583;45.590;-122.498;2023-01-24T03:46:57;7.00;;;3.40;;
50631;SDS011;49583;45.590;-122.498;2023-01-24T03:49:09;5.60;;;3.20;;
50631;SDS011;49583;45.590;-122.498;2023-01-24T03:51:25;5.50;;;2.40;;
50631;SDS011;49583;45.590;-122.498;2023-01-24T03:53:54;8.00;;;3.40;;
50631;SDS011;49583;45.590;-122.498;2023-01-24T03:56:17;7.50;;;2.80;;
50631;SDS011;49583;45.590;-122.498;2023-01-24T03:58:35;7.30;;;2.60;;
50631;SDS011;49583;45.590;-122.498;2023-01-24T04:00:51;6.70;;;2.70;;
50631;SDS011;49583;45.590;-122.498;2023-01-24T04:03:23;9.80;;;3.10;;
50631;SDS011;49583;45.590;-122.498;2023-01-24T04:05:36;7.00;;;2.40;;
50631;SDS011;49583;45.590;-122.498;2023-01-24T04:07:49;6.10;;;3.20;;
50631;SDS011;49583;45.590;-122.498;2023-01-24T04:10:03;4.30;;;2.40;;
50631;SDS011;49583;45.590;-122.498;2023-01-24T04:12:20;4.90;;;2.80;;
50631;SDS011;49583;45.590;-122.498;2023-01-24T04:14:33;4.80;;;2.80;;
50631;SDS011;49583;45.590;-122.498;2023-01-24T04:16:51;5.10;;;2.70;;
50631;SDS011;49583;45.590;-122.498;2023-01-24T04:19:10;11.40;;;3.20;;
50631;SDS011;49583;45.590;-122.498;2023-01-24T04:21:23;5.90;;;2.90;;
50631;SDS011;49583;45.590;-122.498;2023-01-24T04:23:36;8.20;;;2.40;;
50631;SDS011;49583;45.590;-122.498;2023-01-24T04:25:52;11.30;;;3.10;;
50631;SDS011;49583;45.590;-122.498;2023-01-24T04:28:09;6.40;;;2.60;;
50631;SDS011;49583;45.590;-122.498;2023-01-24T04:30:22;6.90;;;2.10;;
50631;SDS011;49583;45.590;-122.498;2023-01-24T04:32:36;4.00;;;2.60;;
50631;SDS011;49583;45.590;-122.498;2023-01-24T04:34:55;3.60;;;1.90;;
50631;SDS011;49583;45.590;-122.498;2023-01-24T04:37:29;5.80;;;2.40;;
50631;SDS011;49583;45.590;-122.498;2023-01-24T04:39:42;4.90;;;1.80;;
50631;SDS011;49583;45.590;-122.498;2023-01-24T04:41:55;4.90;;;2.20;;
50631;SDS011;49583;45.590;-122.498;2023-01-24T04:44:09;5.20;;;2.90;;
50631;SDS011;49583;45.590;-122.498;2023-01-24T04:46:23;7.30;;;2.90;;
50631;SDS011;49583;45.590;-122.498;2023-01-24T04:48:39;4.10;;;2.20;;
50631;SDS011;49583;45.590;-122.498;2023-01-24T04:50:53;6.90;;;2.30;;
50631;SDS011;49583;45.590;-122.498;2023-01-24T04:53:10;7.00;;;2.60;;
50631;SDS011;49583;45.590;-122.498;2023-01-24T04:55:24;7.10;;;3.00;;
50631;SDS011;49583;45.590;-122.498;2023-01-24T04:57:37;7.50;;;2.90;;
50631;SDS011;49583;45.590;-122.498;2023-01-24T04:59:50;11.60;;;2.50;;
50631;SDS011;49583;45.590;-122.498;2023-01-24T05:02:03;7.30;;;2.40;;
50631;SDS011;49583;45.590;-122.498;2023-01-24T05:04:25;5.10;;;2.40;;
50631;SDS011;49583;45.590;-122.498;2023-01-24T05:06:38;7.50;;;2.40;;
50631;SDS011;49583;45.590;-122.498;2023-01-24T05:08:52;5.90;;;2.30;;
50631;SDS011;49583;45.590;-122.498;2023-01-24T05:11:15;5.80;;;2.70;;
50631;SDS011;49583;45.590;-122.498;2023-01-24T05:13:29;5.70;;;2.90;;
50631;SDS011;49583;45.590;-122.498;2023-01-24T05:15:47;6.40;;;2.70;;
50631;SDS011;49583;45.590;-122.498;2023-01-24T05:18:01;5.50;;;2.90;;
50631;SDS011;49583;45.590;-122.498;2023-01-24T05:20:15;7.10;;;2.80;;
50631;SDS011;49583;45.590;-122.498;2023-01-24T05:22:30;7.70;;;3.00;;
50631;SDS011;49583;45.590;-122.498;2023-01-24T05:24:43;8.60;;;3.10;;
50631;SDS011;49583;45.590;-122.498;2023-01-24T05:26:56;4.80;;;2.50;;
50631;SDS011;49583;45.590;-122.498;2023-01-24T05:29:09;7.80;;;3.10;;
50631;SDS011;49583;45.590;-122.498;2023-01-24T05:31:24;5.20;;;3.30;;
50631;SDS011;49583;45.590;-122.498;2023-01-24T05:33:39;5.40;;;3.10;;
50631;SDS011;49583;45.590;-122.498;2023-01-24T05:35:58;7.90;;;3.20;;
50631;SDS011;49583;45.590;-122.498;2023-01-24T05:38:13;8.60;;;3.20;;
50631;SDS011;49583;45.590;-122.498;2023-01-24T05:40:27;8.40;;;4.00;;
50631;SDS011;49583;45.590;-122.498;2023-01-24T05:42:41;5.80;;;3.80;;
50631;SDS011;49583;45.590;-122.498;2023-01-24T05:44:54;10.00;;;4.80;;
50631;SDS011;49583;45.590;-122.498;2023-01-24T05:47:07;9.00;;;4.50;;
50631;SDS011;49583;45.590;-122.498;2023-01-24T05:49:23;9.20;;;3.50;;
50631;SDS011;49583;45.590;-122.498;2023-01-24T05:51:36;8.00;;;4.10;;
50631;SDS011;49583;45.590;-122.498;2023-01-24T05:53:49;7.60;;;4.50;;
50631;SDS011;49583;45.590;-122.498;2023-01-24T05:56:26;8.50;;;4.30;;
50631;SDS011;49583;45.590;-122.498;2023-01-24T05:58:39;8.10;;;4.30;;
50631;SDS011;49583;45.590;-122.498;2023-01-24T06:00:54;9.50;;;4.90;;
50631;SDS011;49583;45.590;-122.498;2023-01-24T06:03:16;13.20;;;5.30;;
50631;SDS011;49583;45.590;-122.498;2023-01-24T06:05:29;7.90;;;5.10;;
50631;SDS011;49583;45.590;-122.498;2023-01-24T06:07:42;8.90;;;4.40;;
50631;SDS011;49583;45.590;-122.498;2023-01-24T06:09:55;6.80;;;4.30;;
50631;SDS011;49583;45.590;-122.498;2023-01-24T06:12:10;8.10;;;4.40;;
50631;SDS011;49583;45.590;-122.498;2023-01-24T06:14:23;7.80;;;5.20;;
50631;SDS011;49583;45.590;-122.498;2023-01-24T06:16:35;12.40;;;6.50;;
50631;SDS011;49583;45.590;-122.498;2023-01-24T06:18:51;7.60;;;5.50;;
50631;SDS011;49583;45.590;-122.498;2023-01-24T06:21:10;9.60;;;5.20;;
50631;SDS011;49583;45.590;-122.498;2023-01-24T06:23:38;10.20;;;5.60;;
50631;SDS011;49583;45.590;-122.498;2023-01-24T06:25:53;7.10;;;5.40;;
50631;SDS011;49583;45.590;-122.498;2023-01-24T06:28:08;6.30;;;4.90;;
50631;SDS011;49583;45.590;-122.498;2023-01-24T06:30:23;11.40;;;5.50;;
50631;SDS011;49583;45.590;-122.498;2023-01-24T06:32:38;6.30;;;4.80;;
50631;SDS011;49583;45.590;-122.498;2023-01-24T06:35:07;10.20;;;4.70;;
50631;SDS011;49583;45.590;-122.498;2023-01-24T06:37:29;7.70;;;4.70;;
50631;SDS011;49583;45.590;-122.498;2023-01-24T06:39:47;8.90;;;4.30;;
50631;SDS011;49583;45.590;-122.498;2023-01-24T06:42:02;7.50;;;4.10;;
50631;SDS011;49583;45.590;-122.498;2023-01-24T06:44:16;8.20;;;4.80;;
50631;SDS011;49583;45.590;-122.498;2023-01-24T06:46:29;10.70;;;3.90;;
50631;SDS011;49583;45.590;-122.498;2023-01-24T06:48:45;6.20;;;3.60;;
50631;SDS011;49583;45.590;-122.498;2023-01-24T06:50:58;10.30;;;4.10;;
50631;SDS011;49583;45.590;-122.498;2023-01-24T06:53:11;7.90;;;4.50;;
50631;SDS011;49583;45.590;-122.498;2023-01-24T06:55:24;4.70;;;4.10;;
50631;SDS011;49583;45.590;-122.498;2023-01-24T06:57:36;6.30;;;3.50;;
50631;SDS011;49583;45.590;-122.498;2023-01-24T06:59:49;8.70;;;4.20;;
50631;SDS011;49583;45.590;-122.498;2023-01-24T07:02:02;11.00;;;4.50;;
50631;SDS011;49583;45.590;-122.498;2023-01-24T07:04:15;8.10;;;3.60;;
50631;SDS011;49583;45.590;-122.498;2023-01-24T07:06:28;5.90;;;3.40;;
50631;SDS011;49583;45.590;-122.498;2023-01-24T07:08:41;7.90;;;4.00;;
50631;SDS011;49583;45.590;-122.498;2023-01-24T07:10:55;7.80;;;4.50;;
50631;SDS011;49583;45.590;-122.498;2023-01-24T07:13:09;6.20;;;3.40;;
50631;SDS011;49583;45.590;-122.498;2023-01-24T07:15:22;5.50;;;3.60;;
50631;SDS011;49583;45.590;-122.498;2023-01-24T07:17:35;7.50;;;3.80;;
50631;SDS011;49583;45.590;-122.498;2023-01-24T07:19:49;5.20;;;3.00;;
50631;SDS011;49583;45.590;-122.498;2023-01-24T07:22:03;5.60;;;3.60;;
50631;SDS011;49583;45.590;-122.498;2023-01-24T07:24:20;5.90;;;3.50;;
50631;SDS011;49583;45.590;-122.498;2023-01-24T07:26:34;10.20;;;5.10;;
50631;SDS011;49583;45.590;-122.498;2023-01-24T07:28:48;11.20;;;5.00;;
50631;SDS011;49583;45.590;-122.498;2023-01-24T07:31:01;9.90;;;5.40;;
50631;SDS011;49583;45.590;-122.498;2023-01-24T07:33:14;14.40;;;5.30;;
50631;SDS011;49583;45.590;-122.498;2023-01-24T07:35:27;17.30;;;6.60;;
50631;SDS011;49583;45.590;-122.498;2023-01-24T07:37:40;23.70;;;10.90;;
50631;SDS011;49583;45.590;-122.498;2023-01-24T07:39:53;16.60;;;8.70;;
50631;SDS011;49583;45.590;-122.498;2023-01-24T07:42:06;16.60;;;7.60;;
50631;SDS011;49583;45.590;-122.498;2023-01-24T07:44:21;11.40;;;5.90;;
50631;SDS011;49583;45.590;-122.498;2023-01-24T07:46:34;9.70;;;3.90;;
50631;SDS011;49583;45.590;-122.498;2023-01-24T07:48:47;10.50;;;4.60;;
50631;SDS011;49583;45.590;-122.498;2023-01-24T07:51:00;7.70;;;4.20;;
50631;SDS011;49583;45.590;-122.498;2023-01-24T07:53:13;5.90;;;3.30;;
50631;SDS011;49583;45.590;-122.498;2023-01-24T07:55:26;3.80;;;2.60;;
50631;SDS011;49583;45.590;-122.498;2023-01-24T07:57:39;6.00;;;3.70;;
50631;SDS011;49583;45.590;-122.498;2023-01-24T07:59:51;6.60;;;3.60;;
50631;SDS011;49583;45.590;-122.498;2023-01-24T08:02:04;9.70;;;4.50;;
50631;SDS011;49583;45.590;-122.498;2023-01-24T08:04:19;7.70;;;4.00;;
50631;SDS011;49583;45.590;-122.498;2023-01-24T08:06:31;11.60;;;4.60;;
50631;SDS011;49583;45.590;-122.498;2023-01-24T08:08:44;7.70;;;4.30;;
50631;SDS011;49583;45.590;-122.498;2023-01-24T08:10:57;5.50;;;3.50;;
50631;SDS011;49583;45.590;-122.498;2023-01-24T08:13:10;7.40;;;4.50;;
50631;SDS011;49583;45.590;-122.498;2023-01-24T08:15:22;8.90;;;3.40;;
50631;SDS011;49583;45.590;-122.498;2023-01-24T08:17:37;9.60;;;4.30;;
50631;SDS011;49583;45.590;-122.498;2023-01-24T08:19:50;8.90;;;4.60;;
50631;SDS011;49583;45.590;-122.498;2023-01-24T08:22:04;13.00;;;4.60;;
50631;SDS011;49583;45.590;-122.498;2023-01-24T08:24:16;10.30;;;3.90;;
50631;SDS011;49583;45.590;-122.498;2023-01-24T08:26:30;7.30;;;4.20;;
50631;SDS011;49583;45.590;-122.498;2023-01-24T08:28:42;8.40;;;3.80;;
50631;SDS011;49583;45.590;-122.498;2023-01-24T08:30:56;6.50;;;3.70;;
50631;SDS011;49583;45.590;-122.498;2023-01-24T08:33:10;10.20;;;4.40;;
50631;SDS011;49583;45.590;-122.498;2023-01-24T08:35:25;4.50;;;3.60;;
50631;SDS011;49583;45.590;-122.498;2023-01-24T08:37:38;5.30;;;3.80;;
50631;SDS011;49583;45.590;-122.498;2023-01-24T08:39:52;5.40;;;3.70;;
50631;SDS011;49583;45.590;-122.498;2023-01-24T08:42:05;5.30;;;3.20;;
50631;SDS011;49583;45.590;-122.498;2023-01-24T08:44:19;4.30;;;3.40;;
50631;SDS011;49583;45.590;-122.498;2023-01-24T08:46:31;6.30;;;4.30;;
50631;SDS011;49583;45.590;-122.498;2023-01-24T08:48:44;5.20;;;3.70;;
50631;SDS011;49583;45.590;-122.498;2023-01-24T08:50:57;10.70;;;3.40;;
50631;SDS011;49583;45.590;-122.498;2023-01-24T08:53:12;6.10;;;3.60;;
50631;SDS011;49583;45.590;-122.498;2023-01-24T08:55:25;5.20;;;3.40;;
50631;SDS011;49583;45.590;-122.498;2023-01-24T08:57:38;6.30;;;3.80;;
50631;SDS011;49583;45.590;-122.498;2023-01-24T08:59:51;8.50;;;3.30;;
50631;SDS011;49583;45.590;-122.498;2023-01-24T09:02:04;5.90;;;3.80;;
50631;SDS011;49583;45.590;-122.498;2023-01-24T09:04:19;5.40;;;3.20;;
50631;SDS011;49583;45.590;-122.498;2023-01-24T09:06:34;5.20;;;3.90;;
50631;SDS011;49583;45.590;-122.498;2023-01-24T09:08:47;5.70;;;2.90;;
50631;SDS011;49583;45.590;-122.498;2023-01-24T09:11:00;8.40;;;3.60;;
50631;SDS011;49583;45.590;-122.498;2023-01-24T09:13:13;5.70;;;3.60;;
50631;SDS011;49583;45.590;-122.498;2023-01-24T09:15:26;4.60;;;3.20;;
50631;SDS011;49583;45.590;-122.498;2023-01-24T09:17:39;6.00;;;3.10;;
50631;SDS011;49583;45.590;-122.498;2023-01-24T09:19:52;4.40;;;3.30;;
50631;SDS011;49583;45.590;-122.498;2023-01-24T09:22:05;8.70;;;3.60;;
50631;SDS011;49583;45.590;-122.498;2023-01-24T09:24:18;6.70;;;3.40;;
50631;SDS011;49583;45.590;-122.498;2023-01-24T09:26:30;6.90;;;3.10;;
50631;SDS011;49583;45.590;-122.498;2023-01-24T09:28:43;3.10;;;2.70;;
50631;SDS011;49583;45.590;-122.498;2023-01-24T09:30:59;6.40;;;3.00;;
50631;SDS011;49583;45.590;-122.498;2023-01-24T09:33:12;7.00;;;3.00;;
50631;SDS011;49583;45.590;-122.498;2023-01-24T09:35:25;6.20;;;3.80;;
50631;SDS011;49583;45.590;-122.498;2023-01-24T09:37:38;5.20;;;3.60;;
50631;SDS011;49583;45.590;-122.498;2023-01-24T09:39:52;8.40;;;3.00;;
50631;SDS011;49583;45.590;-122.498;2023-01-24T09:42:08;4.10;;;2.90;;
50631;SDS011;49583;45.590;-122.498;2023-01-24T09:44:28;3.30;;;2.70;;
50631;SDS011;49583;45.590;-122.498;2023-01-24T09:46:50;4.10;;;2.60;;
50631;SDS011;49583;45.590;-122.498;2023-01-24T09:49:11;2.80;;;2.30;;
50631;SDS011;49583;45.590;-122.498;2023-01-24T09:51:30;4.10;;;2.40;;
50631;SDS011;49583;45.590;-122.498;2023-01-24T09:53:45;4.00;;;2.50;;
50631;SDS011;49583;45.590;-122.498;2023-01-24T09:56:02;3.10;;;2.60;;
50631;SDS011;49583;45.590;-122.498;2023-01-24T09:58:25;6.10;;;2.60;;
50631;SDS011;49583;45.590;-122.498;2023-01-24T10:00:42;4.00;;;3.10;;
50631;SDS011;49583;45.590;-122.498;2023-01-24T10:02:56;5.10;;;2.80;;
50631;SDS011;49583;45.590;-122.498;2023-01-24T10:05:11;3.80;;;3.40;;
50631;SDS011;49583;45.590;-122.498;2023-01-24T10:07:40;5.40;;;3.40;;
50631;SDS011;49583;45.590;-122.498;2023-01-24T10:10:03;5.70;;;3.70;;
50631;SDS011;49583;45.590;-122.498;2023-01-24T10:12:32;5.10;;;3.30;;
50631;SDS011;49583;45.590;-122.498;2023-01-24T10:14:56;7.90;;;3.10;;
50631;SDS011;49583;45.590;-122.498;2023-01-24T10:17:24;4.40;;;3.10;;
50631;SDS011;49583;45.590;-122.498;2023-01-24T10:22:25;6.80;;;3.50;;
50631;SDS011;49583;45.590;-122.498;2023-01-24T10:24:51;7.10;;;3.60;;
50631;SDS011;49583;45.590;-122.498;2023-01-24T10:27:14;8.40;;;3.80;;
50631;SDS011;49583;45.590;-122.498;2023-01-24T10:29:32;6.00;;;3.60;;
50631;SDS011;49583;45.590;-122.498;2023-01-24T10:31:52;5.00;;;3.70;;
50631;SDS011;49583;45.590;-122.498;2023-01-24T10:34:11;7.30;;;2.90;;
50631;SDS011;49583;45.590;-122.498;2023-01-24T10:36:28;6.80;;;3.40;;
50631;SDS011;49583;45.590;-122.498;2023-01-24T10:38:51;5.40;;;3.10;;
50631;SDS011;49583;45.590;-122.498;2023-01-24T10:41:12;8.00;;;3.40;;
50631;SDS011;49583;45.590;-122.498;2023-01-24T10:43:29;7.70;;;3.50;;
50631;SDS011;49583;45.590;-122.498;2023-01-24T10:45:45;9.60;;;4.40;;
50631;SDS011;49583;45.590;-122.498;2023-01-24T10:48:09;10.10;;;3.70;;
50631;SDS011;49583;45.590;-122.498;2023-01-24T10:50:40;7.80;;;3.70;;
50631;SDS011;49583;45.590;-122.498;2023-01-24T10:52:54;5.80;;;3.30;;
50631;SDS011;49583;45.590;-122.498;2023-01-24T10:55:34;5.50;;;3.60;;
50631;SDS011;49583;45.590;-122.498;2023-01-24T10:57:51;6.90;;;3.90;;
50631;SDS011;49583;45.590;-122.498;2023-01-24T11:00:12;6.60;;;3.60;;
50631;SDS011;49583;45.590;-122.498;2023-01-24T11:02:34;6.40;;;3.20;;
50631;SDS011;49583;45.590;-122.498;2023-01-24T11:04:48;6.90;;;3.40;;
50631;SDS011;49583;45.590;-122.498;2023-01-24T11:07:19;3.90;;;2.80;;
50631;SDS011;49583;45.590;-122.498;2023-01-24T11:09:40;4.10;;;3.30;;
50631;SDS011;49583;45.590;-122.498;2023-01-24T11:11:53;3.70;;;2.90;;
50631;SDS011;49583;45.590;-122.498;2023-01-24T11:14:08;4.00;;;2.50;;
50631;SDS011;49583;45.590;-122.498;2023-01-24T11:16:29;5.80;;;3.20;;
50631;SDS011;49583;45.590;-122.498;2023-01-24T11:18:52;4.40;;;3.00;;
50631;SDS011;49583;45.590;-122.498;2023-01-24T11:21:14;3.60;;;3.30;;
50631;SDS011;49583;45.590;-122.498;2023-01-24T11:23:28;5.20;;;3.30;;
50631;SDS011;49583;45.590;-122.498;2023-01-24T11:25:52;6.30;;;3.40;;
50631;SDS011;49583;45.590;-122.498;2023-01-24T11:28:09;3.20;;;2.50;;
50631;SDS011;49583;45.590;-122.498;2023-01-24T11:30:37;3.30;;;2.80;;
50631;SDS011;49583;45.590;-122.498;2023-01-24T11:33:01;4.80;;;2.60;;
50631;SDS011;49583;45.590;-122.498;2023-01-24T11:35:27;6.60;;;3.00;;
50631;SDS011;49583;45.590;-122.498;2023-01-24T11:37:50;4.80;;;2.60;;
50631;SDS011;49583;45.590;-122.498;2023-01-24T11:40:24;4.90;;;3.10;;
50631;SDS011;49583;45.590;-122.498;2023-01-24T11:42:45;4.10;;;2.50;;
50631;SDS011;49583;45.590;-122.498;2023-01-24T11:45:18;7.30;;;2.70;;
50631;SDS011;49583;45.590;-122.498;2023-01-24T11:47:43;5.50;;;3.10;;
50631;SDS011;49583;45.590;-122.498;2023-01-24T11:50:06;6.10;;;3.30;;
50631;SDS011;49583;45.590;-122.498;2023-01-24T11:52:39;6.60;;;3.30;;
50631;SDS011;49583;45.590;-122.498;2023-01-24T11:55:01;5.40;;;3.30;;
50631;SDS011;49583;45.590;-122.498;2023-01-24T11:57:24;5.50;;;3.20;;
50631;SDS011;49583;45.590;-122.498;2023-01-24T11:59:50;6.90;;;2.90;;
50631;SDS011;49583;45.590;-122.498;2023-01-24T12:02:23;5.20;;;2.80;;
50631;SDS011;49583;45.590;-122.498;2023-01-24T12:07:31;7.80;;;3.10;;
50631;SDS011;49583;45.590;-122.498;2023-01-24T12:09:58;2.80;;;2.60;;
50631;SDS011;49583;45.590;-122.498;2023-01-24T12:12:17;4.50;;;3.20;;
50631;SDS011;49583;45.590;-122.498;2023-01-24T12:14:41;6.10;;;3.40;;
50631;SDS011;49583;45.590;-122.498;2023-01-24T12:17:19;5.40;;;3.80;;
50631;SDS011;49583;45.590;-122.498;2023-01-24T12:19:49;3.50;;;2.90;;
50631;SDS011;49583;45.590;-122.498;2023-01-24T12:22:36;3.70;;;3.10;;
50631;SDS011;49583;45.590;-122.498;2023-01-24T12:24:51;4.30;;;3.10;;
50631;SDS011;49583;45.590;-122.498;2023-01-24T12:27:24;2.60;;;2.40;;
50631;SDS011;49583;45.590;-122.498;2023-01-24T12:29:41;2.90;;;2.30;;
50631;SDS011;49583;45.590;-122.498;2023-01-24T12:32:00;6.30;;;2.60;;
50631;SDS011;49583;45.590;-122.498;2023-01-24T12:34:27;4.40;;;3.00;;
50631;SDS011;49583;45.590;-122.498;2023-01-24T12:36:51;3.70;;;2.10;;
50631;SDS011;49583;45.590;-122.498;2023-01-24T12:39:14;4.50;;;3.30;;
50631;SDS011;49583;45.590;-122.498;2023-01-24T12:41:30;3.30;;;2.30;;
50631;SDS011;49583;45.590;-122.498;2023-01-24T12:43:49;4.20;;;2.60;;
50631;SDS011;49583;45.590;-122.498;2023-01-24T12:46:08;4.40;;;2.20;;
50631;SDS011;49583;45.590;-122.498;2023-01-24T12:48:32;3.10;;;2.60;;
50631;SDS011;49583;45.590;-122.498;2023-01-24T12:50:51;5.20;;;3.20;;
50631;SDS011;49583;45.590;-122.498;2023-01-24T12:53:09;5.10;;;2.10;;
50631;SDS011;49583;45.590;-122.498;2023-01-24T12:55:28;4.80;;;2.60;;
50631;SDS011;49583;45.590;-122.498;2023-01-24T12:57:47;4.30;;;2.80;;
50631;SDS011;49583;45.590;-122.498;2023-01-24T13:00:08;2.80;;;2.50;;
50631;SDS011;49583;45.590;-122.498;2023-01-24T13:02:44;5.50;;;2.70;;
50631;SDS011;49583;45.590;-122.498;2023-01-24T13:05:20;5.00;;;3.10;;
50631;SDS011;49583;45.590;-122.498;2023-01-24T13:07:42;3.80;;;2.80;;
50631;SDS011;49583;45.590;-122.498;2023-01-24T13:10:04;2.70;;;2.40;;
50631;SDS011;49583;45.590;-122.498;2023-01-24T13:12:24;4.80;;;2.80;;
50631;SDS011;49583;45.590;-122.498;2023-01-24T13:14:40;4.00;;;2.40;;